Time,TemperatureF,DewpointF,PressureIn,WindDirection,WindDirectionDegrees,WindSpeedMPH,WindSpeedGustMPH,Humidity,HourlyPrecipIn,Conditions,Clouds,dailyrainin,SolarRadiationWatts/m^2,SoftwareType,DateUTC
2013-04-10 00:01:00,37.1,35.8,29.94,NNE,31,14.0,20.0,95,0.01,,SKC,0.00,0.00,VWS V14.01,2013-04-10 05:01:00,
2013-04-10 00:06:00,37.1,35.8,29.93,ENE,57,11.0,20.0,95,0.01,,SKC,0.00,0.00,VWS V14.01,2013-04-10 05:06:00,
2013-04-10 00:11:00,37.1,35.8,29.94,ESE,121,11.0,17.0,95,0.01,,SKC,0.00,0.00,VWS V14.01,2013-04-10 05:11:00,
2013-04-10 00:16:00,37.1,35.8,29.93,ENE,64,14.0,19.0,95,0.01,,SKC,0.00,0.00,VWS V14.01,2013-04-10 05:16:00,
2013-04-10 00:21:00,37.1,35.8,29.94,ENE,65,10.0,17.0,95,0.00,,SKC,0.00,0.00,VWS V14.01,2013-04-10 05:21:00,
2013-04-10 00:26:00,37.1,35.8,29.94,NE,49,16.0,17.0,95,0.00,,SKC,0.00,0.00,VWS V14.01,2013-04-10 05:26:00,
2013-04-10 00:31:00,37.1,35.8,29.93,NE,34,10.0,19.0,95,0.00,,SKC,0.00,0.00,VWS V14.01,2013-04-10 05:31:00,
2013-04-10 00:37:00,37.1,35.8,29.93,ENE,69,7.0,19.0,95,0.00,,SKC,0.00,0.00,VWS V14.01,2013-04-10 05:37:00,
2013-04-10 00:42:00,37.0,35.7,29.93,ENE,69,10.0,14.0,95,0.00,,SKC,0.00,0.00,VWS V14.01,2013-04-10 05:42:00,
2013-04-10 00:47:00,37.0,35.7,29.93,NE,50,10.0,20.0,95,0.00,,SKC,0.00,0.00,VWS V14.01,2013-04-10 05:47:00,
2013-04-10 00:52:00,36.9,35.6,29.92,NE,53,13.0,17.0,95,0.01,,SKC,0.01,0.00,VWS V14.01,2013-04-10 05:52:00,
2013-04-10 00:57:00,36.9,35.6,29.92,NNE,27,16.0,21.0,95,0.01,,SKC,0.01,0.00,VWS V14.01,2013-04-10 05:57:00,
2013-04-10 01:02:00,36.8,35.5,29.92,NE,36,19.0,23.0,95,0.01,,SKC,0.01,0.00,VWS V14.01,2013-04-10 06:02:00,
2013-04-10 01:07:00,36.7,35.4,29.92,NNE,28,15.0,23.0,95,0.01,,SKC,0.01,0.00,VWS V14.01,2013-04-10 06:07:00,
2013-04-10 01:12:00,36.7,35.4,29.92,NNE,13,16.0,19.0,95,0.01,,SKC,0.01,0.00,VWS V14.01,2013-04-10 06:12:00,
2013-04-10 01:17:00,36.6,35.3,29.92,ENE,59,13.0,20.0,95,0.01,,SKC,0.01,0.00,VWS V14.01,2013-04-10 06:17:00,
2013-04-10 01:22:00,36.5,35.2,29.92,ENE,62,10.0,23.0,95,0.01,,SKC,0.01,0.00,VWS V14.01,2013-04-10 06:22:00,
2013-04-10 01:27:00,36.4,35.1,29.91,NNE,30,21.0,27.0,95,0.01,,SKC,0.01,0.00,VWS V14.01,2013-04-10 06:27:00,
2013-04-10 01:32:00,36.2,34.9,29.91,NE,38,18.0,24.0,95,0.01,,SKC,0.01,0.00,VWS V14.01,2013-04-10 06:32:00,
2013-04-10 01:37:00,36.1,34.8,29.90,NE,38,16.0,32.0,95,0.02,,SKC,0.02,0.00,VWS V14.01,2013-04-10 06:37:00,
2013-04-10 01:42:00,36.0,35.0,29.91,NNE,32,20.0,29.0,96,0.02,,SKC,0.02,0.00,VWS V14.01,2013-04-10 06:42:00,
2013-04-10 01:47:00,35.9,34.9,29.91,NE,49,21.0,29.0,96,0.02,,SKC,0.02,0.00,VWS V14.01,2013-04-10 06:47:00,
2013-04-10 01:52:00,35.8,34.5,29.91,NNE,19,16.0,22.0,95,0.01,,SKC,0.02,0.00,VWS V14.01,2013-04-10 06:52:00,
2013-04-10 01:57:00,35.6,34.6,29.92,NNE,32,22.0,31.0,96,0.02,,SKC,0.03,0.00,VWS V14.01,2013-04-10 06:57:00,
2013-04-10 02:02:00,35.5,34.5,29.93,NNE,23,20.0,28.0,96,0.02,,SKC,0.03,0.00,VWS V14.01,2013-04-10 07:02:00,
2013-04-10 02:07:00,35.5,34.5,29.94,NNW,348,19.0,28.0,96,0.02,,SKC,0.03,0.00,VWS V14.01,2013-04-10 07:07:00,
2013-04-10 02:12:00,35.3,34.3,29.93,NE,39,13.0,23.0,96,0.02,,SKC,0.03,0.00,VWS V14.01,2013-04-10 07:12:00,
2013-04-10 02:17:00,35.1,33.8,29.93,NNE,22,25.0,28.0,95,0.02,,SKC,0.03,0.00,VWS V14.01,2013-04-10 07:17:00,
2013-04-10 02:22:00,35.0,33.7,29.93,North,360,22.0,25.0,95,0.02,,SKC,0.03,0.00,VWS V14.01,2013-04-10 07:22:00,
2013-04-10 02:27:00,34.9,33.6,29.92,NNE,18,24.0,27.0,95,0.02,,SKC,0.03,0.00,VWS V14.01,2013-04-10 07:27:00,
2013-04-10 02:32:00,34.7,33.4,29.91,ENE,67,26.0,32.0,95,0.02,,SKC,0.03,0.00,VWS V14.01,2013-04-10 07:32:00,
2013-04-10 02:37:00,34.6,33.3,29.91,NE,39,22.0,32.0,95,0.02,,SKC,0.03,0.00,VWS V14.01,2013-04-10 07:37:00,
2013-04-10 02:42:00,34.5,33.2,29.89,NE,43,20.0,28.0,95,0.01,,SKC,0.03,0.00,VWS V14.01,2013-04-10 07:42:00,
2013-04-10 02:48:00,34.4,33.1,29.90,NNE,17,13.0,31.0,95,0.01,,SKC,0.03,0.00,VWS V14.01,2013-04-10 07:48:00,
2013-04-10 02:53:00,34.3,32.8,29.91,NE,50,14.0,27.0,94,0.01,,SKC,0.03,0.00,VWS V14.01,2013-04-10 07:53:00,
2013-04-10 02:58:00,34.3,32.8,29.91,North,11,10.0,27.0,94,0.01,,SKC,0.03,0.00,VWS V14.01,2013-04-10 07:58:00,
2013-04-10 03:03:00,34.2,32.7,29.92,NE,41,22.0,22.0,94,0.00,,SKC,0.03,0.00,VWS V14.01,2013-04-10 08:03:00,
2013-04-10 03:08:00,34.2,32.7,29.91,NE,42,17.0,23.0,94,0.00,,SKC,0.03,0.00,VWS V14.01,2013-04-10 08:08:00,
2013-04-10 03:13:00,34.1,32.6,29.91,ENE,61,23.0,26.0,94,0.00,,SKC,0.03,0.00,VWS V14.01,2013-04-10 08:13:00,
2013-04-10 03:18:00,34.1,32.6,29.91,NE,45,20.0,26.0,94,0.00,,SKC,0.03,0.00,VWS V14.01,2013-04-10 08:18:00,
2013-04-10 03:23:00,34.1,32.6,29.92,NE,40,20.0,29.0,94,0.00,,SKC,0.03,0.00,VWS V14.01,2013-04-10 08:23:00,
2013-04-10 03:28:00,34.0,32.5,29.91,NE,51,16.0,29.0,94,0.00,,SKC,0.03,0.00,VWS V14.01,2013-04-10 08:28:00,
2013-04-10 03:33:00,34.0,32.5,29.91,NNE,30,17.0,30.0,94,0.00,,SKC,0.03,0.00,VWS V14.01,2013-04-10 08:33:00,
2013-04-10 03:38:00,33.9,32.4,29.92,ENE,62,15.0,30.0,94,0.00,,SKC,0.03,0.00,VWS V14.01,2013-04-10 08:38:00,
2013-04-10 03:43:00,33.9,32.6,29.91,NNE,24,20.0,28.0,95,0.00,,SKC,0.03,0.00,VWS V14.01,2013-04-10 08:43:00,
2013-04-10 03:48:00,33.9,32.6,29.90,NE,40,16.0,30.0,95,0.00,,SKC,0.03,0.00,VWS V14.01,2013-04-10 08:48:00,
2013-04-10 03:53:00,33.9,32.6,29.88,ENE,65,23.0,32.0,95,0.00,,SKC,0.03,0.00,VWS V14.01,2013-04-10 08:53:00,
2013-04-10 03:58:00,33.9,32.6,29.88,NE,37,16.0,32.0,95,0.00,,SKC,0.03,0.00,VWS V14.01,2013-04-10 08:58:00,
2013-04-10 04:03:00,33.9,32.6,29.89,ENE,69,24.0,27.0,95,0.00,,SKC,0.03,0.00,VWS V14.01,2013-04-10 09:03:00,
2013-04-10 04:08:00,34.0,32.7,29.89,NNE,19,16.0,29.0,95,0.00,,SKC,0.03,0.00,VWS V14.01,2013-04-10 09:08:00,
2013-04-10 04:13:00,34.1,32.8,29.89,NNE,17,22.0,24.0,95,0.00,,SKC,0.03,0.00,VWS V14.01,2013-04-10 09:13:00,
2013-04-10 04:18:00,34.1,32.8,29.89,NE,36,24.0,29.0,95,0.00,,SKC,0.03,0.00,VWS V14.01,2013-04-10 09:18:00,
2013-04-10 04:23:00,34.1,32.8,29.89,NE,34,22.0,27.0,95,0.00,,SKC,0.03,0.00,VWS V14.01,2013-04-10 09:23:00,
2013-04-10 04:28:00,34.2,33.2,29.89,NNE,29,18.0,27.0,96,0.00,,SKC,0.03,0.00,VWS V14.01,2013-04-10 09:28:00,
2013-04-10 04:33:00,34.2,33.2,29.89,NE,55,18.0,27.0,96,0.00,,SKC,0.03,0.00,VWS V14.01,2013-04-10 09:33:00,
2013-04-10 04:38:00,34.3,33.3,29.89,NNE,22,18.0,33.0,96,0.00,,SKC,0.03,0.00,VWS V14.01,2013-04-10 09:38:00,
2013-04-10 04:43:00,34.3,33.3,29.89,NE,36,16.0,27.0,96,0.00,,SKC,0.03,0.00,VWS V14.01,2013-04-10 09:43:00,
2013-04-10 04:48:00,34.3,33.3,29.88,NNE,28,21.0,28.0,96,0.00,,SKC,0.03,0.00,VWS V14.01,2013-04-10 09:48:00,
2013-04-10 04:53:00,34.4,33.1,29.89,ENE,57,16.0,28.0,95,0.00,,SKC,0.03,0.00,VWS V14.01,2013-04-10 09:53:00,
2013-04-10 04:58:00,34.5,33.2,29.91,North,355,17.0,28.0,95,0.00,,SKC,0.03,0.00,VWS V14.01,2013-04-10 09:58:00,
2013-04-10 05:03:00,34.6,33.3,29.92,NNE,24,26.0,28.0,95,0.00,,SKC,0.03,0.00,VWS V14.01,2013-04-10 10:03:00,
2013-04-10 05:08:00,34.6,33.3,29.95,North,5,13.0,31.0,95,0.00,,SKC,0.03,0.00,VWS V14.01,2013-04-10 10:08:00,
2013-04-10 05:13:00,34.6,33.3,29.95,North,360,11.0,20.0,95,0.00,,SKC,0.03,0.00,VWS V14.01,2013-04-10 10:13:00,
2013-04-10 05:18:00,34.7,33.4,29.97,North,355,22.0,24.0,95,0.00,,SKC,0.03,0.00,VWS V14.01,2013-04-10 10:18:00,
2013-04-10 05:23:00,34.8,33.8,30.00,NW,309,24.0,25.0,96,0.01,,SKC,0.04,0.00,VWS V14.01,2013-04-10 10:23:00,
2013-04-10 05:28:00,35.0,33.7,30.04,NNW,342,11.0,27.0,95,0.01,,SKC,0.04,0.00,VWS V14.01,2013-04-10 10:28:00,
2013-04-10 05:33:00,34.8,33.5,29.98,NNE,12,16.0,25.0,95,0.01,,SKC,0.04,0.00,VWS V14.01,2013-04-10 10:33:00,
2013-04-10 05:38:00,34.7,33.4,29.99,NNE,18,22.0,25.0,95,0.02,,SKC,0.05,0.00,VWS V14.01,2013-04-10 10:38:00,
2013-04-10 05:43:00,34.4,33.1,29.96,NNE,33,24.0,24.0,95,0.03,,SKC,0.06,0.00,VWS V14.01,2013-04-10 10:43:00,
2013-04-10 05:48:00,34.2,32.9,29.91,North,360,18.0,28.0,95,0.03,,SKC,0.06,0.00,VWS V14.01,2013-04-10 10:48:00,
2013-04-10 05:53:00,34.2,32.9,29.92,NE,34,28.0,31.0,95,0.05,,SKC,0.08,0.00,VWS V14.01,2013-04-10 10:53:00,
2013-04-10 05:58:00,34.1,33.1,29.92,NE,41,20.0,33.0,96,0.08,,SKC,0.11,0.00,VWS V14.01,2013-04-10 10:58:00,
2013-04-10 06:03:00,34.1,33.1,29.90,NNE,22,14.0,28.0,96,0.10,,SKC,0.13,0.00,VWS V14.01,2013-04-10 11:03:00,
2013-04-10 06:08:00,34.1,33.1,29.90,NE,56,15.0,28.0,96,0.12,,SKC,0.15,0.00,VWS V14.01,2013-04-10 11:08:00,
2013-04-10 06:13:00,34.2,33.2,29.92,NE,43,9.0,20.0,96,0.14,,SKC,0.17,0.00,VWS V14.01,2013-04-10 11:13:00,
2013-04-10 06:18:00,34.3,33.3,29.89,NE,50,17.0,20.0,96,0.15,,SKC,0.18,0.00,VWS V14.01,2013-04-10 11:18:00,
2013-04-10 06:23:00,34.4,33.4,29.86,NE,42,20.0,23.0,96,0.15,,SKC,0.18,0.00,VWS V14.01,2013-04-10 11:23:00,
2013-04-10 06:28:00,34.4,33.4,29.84,NNE,28,18.0,29.0,96,0.15,,SKC,0.18,0.00,VWS V14.01,2013-04-10 11:28:00,
2013-04-10 06:33:00,34.6,33.3,29.86,ENE,72,5.0,21.0,95,0.14,,SKC,0.18,0.00,VWS V14.01,2013-04-10 11:33:00,
2013-04-10 06:38:00,34.7,33.4,29.90,ENE,59,8.0,21.0,95,0.15,,SKC,0.19,0.00,VWS V14.01,2013-04-10 11:38:00,
2013-04-10 06:43:00,34.8,33.5,29.90,ENE,69,7.0,13.0,95,0.14,,SKC,0.19,0.00,VWS V14.01,2013-04-10 11:43:00,
2013-04-10 06:48:00,35.0,33.7,29.90,NE,36,13.0,22.0,95,0.15,,SKC,0.20,0.00,VWS V14.01,2013-04-10 11:48:00,
2013-04-10 06:53:00,35.0,33.7,29.91,NNW,344,17.0,21.0,95,0.15,,SKC,0.21,0.00,VWS V14.01,2013-04-10 11:53:00,
2013-04-10 06:58:00,34.8,33.5,29.88,NNE,28,15.0,26.0,95,0.16,,SKC,0.22,0.00,VWS V14.01,2013-04-10 11:58:00,
2013-04-10 07:03:00,34.8,33.5,29.89,NNE,32,21.0,23.0,95,0.11,,SKC,0.23,0.00,VWS V14.01,2013-04-10 12:03:00,
2013-04-10 07:08:00,34.8,33.5,29.92,ENE,61,6.0,23.0,95,0.11,,SKC,0.23,0.00,VWS V14.01,2013-04-10 12:08:00,
2013-04-10 07:13:00,34.9,33.6,29.90,NE,44,19.0,20.0,95,0.08,,SKC,0.23,0.00,VWS V14.01,2013-04-10 12:13:00,
2013-04-10 07:18:00,34.8,33.5,29.88,NE,51,10.0,26.0,95,0.09,,SKC,0.24,0.00,VWS V14.01,2013-04-10 12:18:00,
2013-04-10 07:23:00,34.8,33.5,29.92,NE,45,12.0,18.0,95,0.07,,SKC,0.25,0.00,VWS V14.01,2013-04-10 12:23:00,
2013-04-10 07:28:00,34.9,33.6,29.94,East,81,4.0,18.0,95,0.07,,SKC,0.25,0.00,VWS V14.01,2013-04-10 12:28:00,
2013-04-10 07:34:00,35.0,33.7,29.95,NE,53,2.0,10.0,95,0.08,,SKC,0.26,0.00,VWS V14.01,2013-04-10 12:34:00,
2013-04-10 07:39:00,35.0,33.7,29.97,NE,54,1.0,10.0,95,0.09,,SKC,0.27,0.00,VWS V14.01,2013-04-10 12:39:00,
2013-04-10 07:44:00,35.1,33.8,29.97,East,94,5.0,8.0,95,0.09,,SKC,0.28,0.00,VWS V14.01,2013-04-10 12:44:00,
2013-04-10 07:49:00,35.3,34.0,29.95,ENE,70,7.0,8.0,95,0.10,,SKC,0.29,0.00,VWS V14.01,2013-04-10 12:49:00,
2013-04-10 07:54:00,35.2,33.9,29.94,NE,43,8.0,10.0,95,0.10,,SKC,0.31,0.00,VWS V14.01,2013-04-10 12:54:00,
2013-04-10 07:59:00,35.1,33.8,29.94,NE,54,7.0,11.0,95,0.11,,SKC,0.32,0.00,VWS V14.01,2013-04-10 12:59:00,
2013-04-10 08:04:00,35.1,33.8,29.94,NNE,30,7.0,13.0,95,0.11,,SKC,0.33,0.00,VWS V14.01,2013-04-10 13:04:00,
2013-04-10 08:09:00,35.1,33.8,29.94,NNE,22,9.0,15.0,95,0.12,,SKC,0.34,5.00,VWS V14.01,2013-04-10 13:09:00,
2013-04-10 08:14:00,35.0,33.7,29.91,North,5,16.0,17.0,95,0.12,,SKC,0.35,7.00,VWS V14.01,2013-04-10 13:14:00,
2013-04-10 08:19:00,34.8,33.8,29.82,North,11,25.0,27.0,96,0.12,,SKC,0.35,18.00,VWS V14.01,2013-04-10 13:19:00,
2013-04-10 08:24:00,34.7,33.7,29.80,North,355,20.0,40.0,96,0.11,,SKC,0.35,30.00,VWS V14.01,2013-04-10 13:24:00,
2013-04-10 08:29:00,34.8,33.8,29.86,NE,45,17.0,40.0,96,0.11,,SKC,0.35,25.00,VWS V14.01,2013-04-10 13:29:00,
2013-04-10 08:34:00,35.0,34.0,29.84,NE,36,28.0,36.0,96,0.10,,SKC,0.35,53.00,VWS V14.01,2013-04-10 13:34:00,
2013-04-10 08:39:00,35.1,34.1,29.83,NE,41,29.0,36.0,96,0.10,,SKC,0.35,76.00,VWS V14.01,2013-04-10 13:39:00,
2013-04-10 08:44:00,35.2,34.2,29.82,NNE,32,14.0,32.0,96,0.08,,SKC,0.35,107.00,VWS V14.01,2013-04-10 13:44:00,
2013-04-10 08:49:00,35.3,34.3,29.80,NE,38,25.0,34.0,96,0.08,,SKC,0.35,137.00,VWS V14.01,2013-04-10 13:49:00,
2013-04-10 08:54:00,35.6,34.6,29.81,NE,48,16.0,29.0,96,0.06,,SKC,0.35,148.00,VWS V14.01,2013-04-10 13:54:00,
2013-04-10 08:59:00,35.9,34.9,29.80,NE,51,12.0,29.0,96,0.06,,SKC,0.35,156.00,VWS V14.01,2013-04-10 13:59:00,
2013-04-10 09:04:00,36.2,35.2,29.80,NE,48,21.0,28.0,96,0.02,,SKC,0.35,176.00,VWS V14.01,2013-04-10 14:04:00,
2013-04-10 09:09:00,36.5,35.5,29.81,ENE,72,10.0,29.0,96,0.02,,SKC,0.35,192.00,VWS V14.01,2013-04-10 14:09:00,
2013-04-10 09:14:00,36.8,35.8,29.82,NNE,17,17.0,22.0,96,0.01,,SKC,0.35,137.00,VWS V14.01,2013-04-10 14:14:00,
2013-04-10 09:19:00,37.0,35.7,29.86,North,5,11.0,22.0,95,0.01,,SKC,0.35,132.00,VWS V14.01,2013-04-10 14:19:00,
2013-04-10 09:24:00,37.2,35.9,29.90,NNE,14,10.0,16.0,95,0.00,,SKC,0.35,51.00,VWS V14.01,2013-04-10 14:24:00,
2013-04-10 09:29:00,37.2,35.9,29.90,North,11,6.0,16.0,95,0.00,,SKC,0.35,49.00,VWS V14.01,2013-04-10 14:29:00,
2013-04-10 09:34:00,37.2,35.9,29.91,NNW,348,6.0,11.0,95,0.00,,SKC,0.35,49.00,VWS V14.01,2013-04-10 14:34:00,
2013-04-10 09:39:00,37.1,35.8,29.91,NNE,26,16.0,18.0,95,0.00,,SKC,0.35,49.00,VWS V14.01,2013-04-10 14:39:00,
2013-04-10 09:44:00,37.1,35.8,29.91,NNE,22,13.0,19.0,95,0.00,,SKC,0.35,47.00,VWS V14.01,2013-04-10 14:44:00,
2013-04-10 09:49:00,37.1,35.8,29.92,NNE,19,14.0,19.0,95,0.00,,SKC,0.35,60.00,VWS V14.01,2013-04-10 14:49:00,
2013-04-10 09:54:00,37.0,35.7,29.94,NNE,25,9.0,16.0,95,0.00,,SKC,0.35,54.00,VWS V14.01,2013-04-10 14:54:00,
2013-04-10 09:59:00,37.0,35.7,29.94,NNE,32,8.0,16.0,95,0.00,,SKC,0.35,58.00,VWS V14.01,2013-04-10 14:59:00,
2013-04-10 10:04:00,37.0,35.7,29.93,NNE,29,13.0,17.0,95,0.00,,SKC,0.35,84.00,VWS V14.01,2013-04-10 15:04:00,
2013-04-10 10:09:00,37.1,35.8,29.92,NNE,28,10.0,19.0,95,0.00,,SKC,0.35,86.00,VWS V14.01,2013-04-10 15:09:00,
2013-04-10 10:14:00,37.1,35.8,29.94,NE,46,13.0,17.0,95,0.00,,SKC,0.35,79.00,VWS V14.01,2013-04-10 15:14:00,
2013-04-10 10:19:00,37.2,35.9,29.94,NNE,32,14.0,17.0,95,0.00,,SKC,0.35,100.00,VWS V14.01,2013-04-10 15:19:00,
2013-04-10 10:24:00,37.4,36.1,29.94,NNE,29,6.0,14.0,95,0.00,,SKC,0.35,104.00,VWS V14.01,2013-04-10 15:24:00,
2013-04-10 10:29:00,37.4,36.1,29.94,NNE,30,9.0,14.0,95,0.00,,SKC,0.35,107.00,VWS V14.01,2013-04-10 15:29:00,
2013-04-10 10:34:00,37.5,36.2,29.95,NE,42,7.0,14.0,95,0.00,,SKC,0.35,76.00,VWS V14.01,2013-04-10 15:34:00,
2013-04-10 10:39:00,37.5,36.2,29.97,North,9,11.0,19.0,95,0.00,,SKC,0.35,58.00,VWS V14.01,2013-04-10 15:39:00,
2013-04-10 10:44:00,37.5,36.2,29.97,NNE,27,10.0,18.0,95,0.00,,SKC,0.35,46.00,VWS V14.01,2013-04-10 15:44:00,
2013-04-10 10:49:00,37.4,36.1,29.99,NE,41,9.0,18.0,95,0.00,,SKC,0.35,42.00,VWS V14.01,2013-04-10 15:49:00,
2013-04-10 10:54:00,37.4,36.1,29.99,NE,40,4.0,12.0,95,0.00,,SKC,0.35,37.00,VWS V14.01,2013-04-10 15:54:00,
2013-04-10 10:59:00,37.4,36.1,30.00,NNE,31,5.0,12.0,95,0.00,,SKC,0.35,33.00,VWS V14.01,2013-04-10 15:59:00,
2013-04-10 11:05:00,37.4,36.1,30.00,NNE,24,6.0,11.0,95,0.00,,SKC,0.35,37.00,VWS V14.01,2013-04-10 16:05:00,
2013-04-10 11:10:00,37.4,36.1,29.99,NNE,26,9.0,12.0,95,0.00,,SKC,0.35,47.00,VWS V14.01,2013-04-10 16:10:00,
2013-04-10 11:15:00,37.5,36.2,29.98,NNE,20,9.0,14.0,95,0.00,,SKC,0.35,58.00,VWS V14.01,2013-04-10 16:15:00,
2013-04-10 11:20:00,37.4,36.1,29.97,NNE,21,12.0,13.0,95,0.00,,SKC,0.35,70.00,VWS V14.01,2013-04-10 16:20:00,
2013-04-10 11:25:00,37.5,36.2,29.96,NNE,32,12.0,20.0,95,0.00,,SKC,0.35,88.00,VWS V14.01,2013-04-10 16:25:00,
2013-04-10 11:30:00,37.5,36.2,29.96,North,355,11.0,20.0,95,0.00,,SKC,0.35,72.00,VWS V14.01,2013-04-10 16:30:00,
2013-04-10 11:35:00,37.3,36.0,29.95,NNE,16,14.0,22.0,95,0.00,,SKC,0.35,76.00,VWS V14.01,2013-04-10 16:35:00,
2013-04-10 11:40:00,37.3,36.0,29.95,North,5,14.0,16.0,95,0.00,,SKC,0.35,95.00,VWS V14.01,2013-04-10 16:40:00,
2013-04-10 11:45:00,37.4,36.1,29.94,North,360,12.0,21.0,95,0.00,,SKC,0.35,130.00,VWS V14.01,2013-04-10 16:45:00,
2013-04-10 11:50:00,37.5,36.2,29.92,NNE,21,19.0,19.0,95,0.00,,SKC,0.35,155.00,VWS V14.01,2013-04-10 16:50:00,
2013-04-10 11:55:00,37.6,36.6,29.89,NNE,25,21.0,27.0,96,0.00,,SKC,0.35,186.00,VWS V14.01,2013-04-10 16:55:00,
2013-04-10 12:00:00,37.4,36.4,29.88,NNE,31,25.0,29.0,96,0.01,,SKC,0.36,149.00,VWS V14.01,2013-04-10 17:00:00,
2013-04-10 12:05:00,37.5,36.5,29.90,NNE,30,23.0,31.0,96,0.01,,SKC,0.36,190.00,VWS V14.01,2013-04-10 17:05:00,
2013-04-10 12:10:00,37.7,36.7,29.89,NNE,30,22.0,27.0,96,0.01,,SKC,0.36,167.00,VWS V14.01,2013-04-10 17:10:00,
2013-04-10 12:15:00,37.7,36.7,29.89,NE,38,21.0,32.0,96,0.01,,SKC,0.36,130.00,VWS V14.01,2013-04-10 17:15:00,
2013-04-10 12:20:00,37.8,36.8,29.88,NNE,14,21.0,26.0,96,0.01,,SKC,0.36,169.00,VWS V14.01,2013-04-10 17:20:00,
2013-04-10 12:25:00,37.8,36.5,29.89,NNE,14,23.0,33.0,95,0.01,,SKC,0.36,158.00,VWS V14.01,2013-04-10 17:25:00,
2013-04-10 12:30:00,37.7,36.4,29.89,NE,47,22.0,24.0,95,0.01,,SKC,0.36,153.00,VWS V14.01,2013-04-10 17:30:00,
2013-04-10 12:35:00,37.8,36.5,29.90,NNE,32,22.0,29.0,95,0.01,,SKC,0.36,156.00,VWS V14.01,2013-04-10 17:35:00,
2013-04-10 12:40:00,37.6,36.3,29.90,NE,41,20.0,24.0,95,0.01,,SKC,0.36,163.00,VWS V14.01,2013-04-10 17:40:00,
2013-04-10 12:45:00,37.8,36.5,29.89,NE,34,14.0,25.0,95,0.01,,SKC,0.36,153.00,VWS V14.01,2013-04-10 17:45:00,
2013-04-10 12:50:00,37.8,36.5,29.88,NE,37,12.0,24.0,95,0.01,,SKC,0.36,149.00,VWS V14.01,2013-04-10 17:50:00,
2013-04-10 12:55:00,37.8,36.5,29.89,NE,44,23.0,24.0,95,0.01,,SKC,0.36,134.00,VWS V14.01,2013-04-10 17:55:00,
2013-04-10 13:00:00,37.9,36.6,29.91,NE,50,14.0,16.0,95,0.00,,SKC,0.36,134.00,VWS V14.01,2013-04-10 18:00:00,
2013-04-10 13:05:00,37.8,36.5,29.92,NE,50,15.0,24.0,95,0.00,,SKC,0.36,120.00,VWS V14.01,2013-04-10 18:05:00,
2013-04-10 13:10:00,37.8,36.2,29.93,NE,42,17.0,21.0,94,0.00,,SKC,0.36,100.00,VWS V14.01,2013-04-10 18:10:00,
2013-04-10 13:15:00,37.9,36.3,29.93,NE,34,16.0,23.0,94,0.00,,SKC,0.36,113.00,VWS V14.01,2013-04-10 18:15:00,
2013-04-10 13:20:00,37.9,36.3,29.92,NE,35,18.0,21.0,94,0.00,,SKC,0.36,130.00,VWS V14.01,2013-04-10 18:20:00,
2013-04-10 13:25:00,38.0,36.4,29.93,North,355,15.0,25.0,94,0.00,,SKC,0.36,130.00,VWS V14.01,2013-04-10 18:25:00,
2013-04-10 13:30:00,38.0,36.4,29.95,NNE,30,14.0,18.0,94,0.00,,SKC,0.36,104.00,VWS V14.01,2013-04-10 18:30:00,
2013-04-10 13:35:00,37.9,36.3,29.94,North,355,15.0,25.0,94,0.00,,SKC,0.36,98.00,VWS V14.01,2013-04-10 18:35:00,
2013-04-10 13:40:00,37.8,36.2,29.94,NNE,29,19.0,23.0,94,0.00,,SKC,0.36,79.00,VWS V14.01,2013-04-10 18:40:00,
2013-04-10 13:46:00,37.6,36.0,29.92,NNE,27,14.0,28.0,94,0.00,,SKC,0.36,83.00,VWS V14.01,2013-04-10 18:46:00,
2013-04-10 13:51:00,37.5,35.9,29.91,NE,43,19.0,27.0,94,0.00,,SKC,0.36,130.00,VWS V14.01,2013-04-10 18:51:00,
2013-04-10 13:56:00,37.5,35.9,29.91,NNE,28,22.0,27.0,94,0.00,,SKC,0.36,134.00,VWS V14.01,2013-04-10 18:56:00,
2013-04-10 14:01:00,37.5,35.9,29.91,ENE,58,19.0,28.0,94,0.00,,SKC,0.36,114.00,VWS V14.01,2013-04-10 19:01:00,
2013-04-10 14:06:00,37.5,35.9,29.94,NNE,32,7.0,28.0,94,0.00,,SKC,0.36,93.00,VWS V14.01,2013-04-10 19:06:00,
2013-04-10 14:11:00,37.7,36.4,29.97,NNE,31,6.0,8.0,95,0.00,,SKC,0.36,72.00,VWS V14.01,2013-04-10 19:11:00,
2013-04-10 14:16:00,37.6,36.3,29.97,ENE,57,11.0,19.0,95,0.00,,SKC,0.36,83.00,VWS V14.01,2013-04-10 19:16:00,
2013-04-10 14:21:00,37.5,35.9,29.97,NNE,28,14.0,19.0,94,0.00,,SKC,0.36,84.00,VWS V14.01,2013-04-10 19:21:00,
2013-04-10 14:26:00,37.5,35.9,29.97,NE,34,10.0,20.0,94,0.00,,SKC,0.36,88.00,VWS V14.01,2013-04-10 19:26:00,
2013-04-10 14:31:00,37.6,36.3,29.96,ENE,62,17.0,19.0,95,0.00,,SKC,0.36,98.00,VWS V14.01,2013-04-10 19:31:00,
2013-04-10 14:36:00,37.4,36.1,29.97,NE,49,13.0,19.0,95,0.00,,SKC,0.36,74.00,VWS V14.01,2013-04-10 19:36:00,
2013-04-10 14:41:00,37.4,36.1,29.98,NE,49,8.0,11.0,95,0.00,,SKC,0.36,62.00,VWS V14.01,2013-04-10 19:41:00,
2013-04-10 14:46:00,37.5,36.2,29.98,NNE,28,10.0,16.0,95,0.01,,SKC,0.37,63.00,VWS V14.01,2013-04-10 19:46:00,
2013-04-10 14:51:00,37.4,36.1,29.98,NE,37,9.0,16.0,95,0.01,,SKC,0.37,67.00,VWS V14.01,2013-04-10 19:51:00,
2013-04-10 14:57:00,37.4,36.1,29.98,NE,39,12.0,16.0,95,0.01,,SKC,0.37,77.00,VWS V14.01,2013-04-10 19:57:00,
2013-04-10 15:02:00,37.3,36.0,29.98,NE,37,10.0,17.0,95,0.01,,SKC,0.37,79.00,VWS V14.01,2013-04-10 20:02:00,
2013-04-10 15:07:00,37.2,35.9,29.98,NE,37,17.0,19.0,95,0.01,,SKC,0.37,76.00,VWS V14.01,2013-04-10 20:07:00,
2013-04-10 15:12:00,37.1,35.8,29.98,NNE,30,11.0,14.0,95,0.02,,SKC,0.38,62.00,VWS V14.01,2013-04-10 20:12:00,
2013-04-10 15:17:00,37.1,35.8,29.98,NNE,32,16.0,18.0,95,0.02,,SKC,0.38,60.00,VWS V14.01,2013-04-10 20:17:00,
2013-04-10 15:22:00,37.0,35.7,29.98,NNE,24,14.0,21.0,95,0.02,,SKC,0.38,62.00,VWS V14.01,2013-04-10 20:22:00,
2013-04-10 15:27:00,37.0,35.7,29.98,NE,42,11.0,21.0,95,0.02,,SKC,0.38,69.00,VWS V14.01,2013-04-10 20:27:00,
2013-04-10 15:32:00,37.0,35.7,29.97,NNE,28,12.0,17.0,95,0.02,,SKC,0.38,67.00,VWS V14.01,2013-04-10 20:32:00,
2013-04-10 15:37:00,37.0,35.7,29.97,NNE,28,17.0,20.0,95,0.02,,SKC,0.38,72.00,VWS V14.01,2013-04-10 20:37:00,
2013-04-10 15:42:00,36.9,35.6,29.95,NE,36,12.0,19.0,95,0.02,,SKC,0.38,67.00,VWS V14.01,2013-04-10 20:42:00,
2013-04-10 15:47:00,36.9,35.6,29.94,NNE,24,15.0,21.0,95,0.02,,SKC,0.38,69.00,VWS V14.01,2013-04-10 20:47:00,
2013-04-10 15:52:00,36.8,35.5,29.93,NNE,29,22.0,22.0,95,0.02,,SKC,0.39,67.00,VWS V14.01,2013-04-10 20:52:00,
2013-04-10 15:57:00,36.9,35.6,29.93,North,5,13.0,22.0,95,0.02,,SKC,0.39,69.00,VWS V14.01,2013-04-10 20:57:00,
2013-04-10 16:02:00,36.8,35.5,29.91,NNE,18,18.0,25.0,95,0.03,,SKC,0.40,62.00,VWS V14.01,2013-04-10 21:02:00,
2013-04-10 16:07:00,36.7,35.4,29.91,NNE,22,20.0,30.0,95,0.03,,SKC,0.40,63.00,VWS V14.01,2013-04-10 21:07:00,
2013-04-10 16:13:00,36.6,35.3,29.91,NE,34,23.0,26.0,95,0.03,,SKC,0.41,69.00,VWS V14.01,2013-04-10 21:13:00,
2013-04-10 16:18:00,36.6,35.3,29.89,NE,38,22.0,27.0,95,0.04,,SKC,0.42,70.00,VWS V14.01,2013-04-10 21:18:00,
2013-04-10 16:23:00,36.6,35.3,29.89,NE,40,20.0,33.0,95,0.04,,SKC,0.42,83.00,VWS V14.01,2013-04-10 21:23:00,
2013-04-10 16:28:00,36.6,35.3,29.89,NNE,29,22.0,33.0,95,0.05,,SKC,0.43,83.00,VWS V14.01,2013-04-10 21:28:00,
2013-04-10 16:33:00,36.7,35.4,29.90,NE,46,15.0,24.0,95,0.05,,SKC,0.43,77.00,VWS V14.01,2013-04-10 21:33:00,
2013-04-10 16:38:00,36.8,35.5,29.90,NE,36,21.0,25.0,95,0.05,,SKC,0.43,93.00,VWS V14.01,2013-04-10 21:38:00,
2013-04-10 16:43:00,36.9,35.6,29.90,NE,46,21.0,21.0,95,0.05,,SKC,0.43,84.00,VWS V14.01,2013-04-10 21:43:00,
2013-04-10 16:48:00,36.9,35.6,29.89,NNE,24,17.0,25.0,95,0.05,,SKC,0.43,93.00,VWS V14.01,2013-04-10 21:48:00,
2013-04-10 16:53:00,36.9,35.6,29.88,NNE,30,16.0,24.0,95,0.05,,SKC,0.43,83.00,VWS V14.01,2013-04-10 21:53:00,
2013-04-10 16:58:00,36.9,35.6,29.87,NNE,28,19.0,28.0,95,0.05,,SKC,0.43,69.00,VWS V14.01,2013-04-10 21:58:00,
2013-04-10 17:03:00,36.9,35.6,29.87,NNE,26,25.0,29.0,95,0.04,,SKC,0.43,74.00,VWS V14.01,2013-04-10 22:03:00,
2013-04-10 17:08:00,36.9,35.6,29.88,NNE,24,20.0,29.0,95,0.04,,SKC,0.43,65.00,VWS V14.01,2013-04-10 22:08:00,
2013-04-10 17:13:00,36.8,35.5,29.88,NE,34,23.0,30.0,95,0.02,,SKC,0.43,54.00,VWS V14.01,2013-04-10 22:13:00,
2013-04-10 17:18:00,36.9,35.6,29.90,NE,46,6.0,30.0,95,0.02,,SKC,0.43,35.00,VWS V14.01,2013-04-10 22:18:00,
2013-04-10 17:23:00,36.9,35.6,29.91,ENE,76,12.0,19.0,95,0.01,,SKC,0.43,37.00,VWS V14.01,2013-04-10 22:23:00,
2013-04-10 17:28:00,37.0,35.7,29.90,ENE,63,11.0,19.0,95,0.01,,SKC,0.43,40.00,VWS V14.01,2013-04-10 22:28:00,
2013-04-10 17:33:00,37.0,35.7,29.90,ENE,69,8.0,21.0,95,0.01,,SKC,0.44,35.00,VWS V14.01,2013-04-10 22:33:00,
2013-04-10 17:38:00,37.0,35.7,29.91,NE,49,6.0,21.0,95,0.01,,SKC,0.44,30.00,VWS V14.01,2013-04-10 22:38:00,
2013-04-10 17:43:00,37.0,35.7,29.91,NE,52,14.0,18.0,95,0.01,,SKC,0.44,26.00,VWS V14.01,2013-04-10 22:43:00,
2013-04-10 17:48:00,37.0,35.7,29.91,NE,55,8.0,18.0,95,0.01,,SKC,0.44,23.00,VWS V14.01,2013-04-10 22:48:00,
2013-04-10 17:53:00,37.0,35.7,29.91,NNE,20,14.0,18.0,95,0.01,,SKC,0.44,26.00,VWS V14.01,2013-04-10 22:53:00,
2013-04-10 17:58:00,36.9,35.6,29.90,ENE,61,15.0,19.0,95,0.01,,SKC,0.44,25.00,VWS V14.01,2013-04-10 22:58:00,
2013-04-10 18:03:00,36.9,35.6,29.91,ENE,59,11.0,16.0,95,0.01,,SKC,0.44,18.00,VWS V14.01,2013-04-10 23:03:00,
2013-04-10 18:08:00,36.8,35.5,29.91,ENE,66,13.0,21.0,95,0.01,,SKC,0.44,14.00,VWS V14.01,2013-04-10 23:08:00,
2013-04-10 18:13:00,36.8,35.5,29.90,NE,53,15.0,19.0,95,0.01,,SKC,0.44,14.00,VWS V14.01,2013-04-10 23:13:00,
2013-04-10 18:18:00,36.8,35.5,29.90,ENE,57,13.0,23.0,95,0.01,,SKC,0.44,14.00,VWS V14.01,2013-04-10 23:18:00,
2013-04-10 18:23:00,36.8,35.5,29.90,ENE,59,13.0,20.0,95,0.01,,SKC,0.44,16.00,VWS V14.01,2013-04-10 23:23:00,
2013-04-10 18:28:00,36.8,35.5,29.89,ENE,65,8.0,20.0,95,0.01,,SKC,0.44,18.00,VWS V14.01,2013-04-10 23:28:00,
2013-04-10 18:33:00,36.8,35.5,29.88,NE,35,16.0,17.0,95,0.01,,SKC,0.44,16.00,VWS V14.01,2013-04-10 23:33:00,
2013-04-10 18:38:00,36.7,35.4,29.89,NE,36,10.0,22.0,95,0.01,,SKC,0.44,11.00,VWS V14.01,2013-04-10 23:38:00,
2013-04-10 18:43:00,36.7,35.4,29.90,ENE,63,15.0,16.0,95,0.00,,SKC,0.44,5.00,VWS V14.01,2013-04-10 23:43:00,
2013-04-10 18:48:00,36.6,35.3,29.90,NE,44,11.0,21.0,95,0.00,,SKC,0.44,5.00,VWS V14.01,2013-04-10 23:48:00,
2013-04-10 18:53:00,36.6,35.3,29.90,ENE,67,13.0,20.0,95,0.00,,SKC,0.44,5.00,VWS V14.01,2013-04-10 23:53:00,
2013-04-10 18:58:00,36.5,35.2,29.89,ENE,65,12.0,23.0,95,0.00,,SKC,0.44,7.00,VWS V14.01,2013-04-10 23:58:00,
2013-04-10 19:03:00,36.5,35.2,29.88,ENE,60,15.0,24.0,95,0.00,,SKC,0.44,5.00,VWS V14.01,2013-04-11 00:03:00,
2013-04-10 19:08:00,36.5,35.2,29.88,NNE,30,16.0,24.0,95,0.00,,SKC,0.44,5.00,VWS V14.01,2013-04-11 00:08:00,
2013-04-10 19:13:00,36.4,35.1,29.86,NE,47,27.0,27.0,95,0.00,,SKC,0.44,0.00,VWS V14.01,2013-04-11 00:13:00,
2013-04-10 19:18:00,36.3,35.0,29.85,NE,38,19.0,28.0,95,0.00,,SKC,0.44,0.00,VWS V14.01,2013-04-11 00:18:00,
2013-04-10 19:24:00,36.3,35.0,29.85,NE,41,14.0,25.0,95,0.00,,SKC,0.44,0.00,VWS V14.01,2013-04-11 00:24:00,
2013-04-10 19:29:00,36.3,35.3,29.85,NE,54,14.0,25.0,96,0.00,,SKC,0.44,0.00,VWS V14.01,2013-04-11 00:29:00,
2013-04-10 19:34:00,36.3,35.3,29.84,NE,51,11.0,23.0,96,0.00,,SKC,0.44,0.00,VWS V14.01,2013-04-11 00:34:00,
2013-04-10 19:39:00,36.3,35.3,29.83,NE,46,14.0,23.0,96,0.00,,SKC,0.44,0.00,VWS V14.01,2013-04-11 00:39:00,
2013-04-10 19:44:00,36.3,35.3,29.83,NE,39,23.0,25.0,96,0.00,,SKC,0.44,0.00,VWS V14.01,2013-04-11 00:44:00,
2013-04-10 19:49:00,36.3,35.3,29.82,NNE,30,24.0,26.0,96,0.00,,SKC,0.44,0.00,VWS V14.01,2013-04-11 00:49:00,
2013-04-10 19:54:00,36.4,35.4,29.82,NE,34,19.0,26.0,96,0.00,,SKC,0.44,0.00,VWS V14.01,2013-04-11 00:54:00,
2013-04-10 19:59:00,36.3,35.3,29.82,NE,46,14.0,26.0,96,0.00,,SKC,0.44,0.00,VWS V14.01,2013-04-11 00:59:00,
2013-04-10 20:04:00,36.3,35.3,29.84,ENE,57,16.0,22.0,96,0.00,,SKC,0.44,0.00,VWS V14.01,2013-04-11 01:04:00,
2013-04-10 20:09:00,36.4,35.4,29.84,NNE,28,21.0,28.0,96,0.00,,SKC,0.44,0.00,VWS V14.01,2013-04-11 01:09:00,
2013-04-10 20:14:00,36.5,35.5,29.85,NNE,29,14.0,22.0,96,0.00,,SKC,0.44,0.00,VWS V14.01,2013-04-11 01:14:00,
2013-04-10 20:19:00,36.5,35.5,29.87,NNE,20,13.0,22.0,96,0.00,,SKC,0.44,0.00,VWS V14.01,2013-04-11 01:19:00,
2013-04-10 20:24:00,36.5,35.5,29.89,NNE,22,8.0,22.0,96,0.00,,SKC,0.44,0.00,VWS V14.01,2013-04-11 01:24:00,
2013-04-10 20:29:00,36.6,35.6,29.91,ENE,60,8.0,22.0,96,0.00,,SKC,0.44,0.00,VWS V14.01,2013-04-11 01:29:00,
2013-04-10 20:34:00,36.6,35.3,29.92,NNE,22,20.0,22.0,95,0.00,,SKC,0.44,0.00,VWS V14.01,2013-04-11 01:34:00,
2013-04-10 20:39:00,36.6,35.3,29.92,NNE,24,12.0,22.0,95,0.00,,SKC,0.44,0.00,VWS V14.01,2013-04-11 01:39:00,
2013-04-10 20:44:00,36.6,35.3,29.92,NNE,16,12.0,14.0,95,0.00,,SKC,0.44,0.00,VWS V14.01,2013-04-11 01:44:00,
2013-04-10 20:49:00,36.6,35.3,29.92,NNE,32,12.0,17.0,95,0.00,,SKC,0.44,0.00,VWS V14.01,2013-04-11 01:49:00,
2013-04-10 20:54:00,36.6,35.3,29.91,North,10,13.0,21.0,95,0.00,,SKC,0.44,0.00,VWS V14.01,2013-04-11 01:54:00,
2013-04-10 20:59:00,36.6,35.3,29.91,NE,36,19.0,22.0,95,0.00,,SKC,0.44,0.00,VWS V14.01,2013-04-11 01:59:00,
2013-04-10 21:04:00,36.6,35.3,29.91,NE,47,18.0,21.0,95,0.00,,SKC,0.44,0.00,VWS V14.01,2013-04-11 02:04:00,
2013-04-10 21:09:00,36.6,35.3,29.91,NNE,32,19.0,29.0,95,0.00,,SKC,0.44,0.00,VWS V14.01,2013-04-11 02:09:00,
2013-04-10 21:14:00,36.6,35.3,29.92,North,9,14.0,23.0,95,0.00,,SKC,0.44,0.00,VWS V14.01,2013-04-11 02:14:00,
2013-04-10 21:19:00,36.6,35.3,29.92,NNE,28,20.0,23.0,95,0.00,,SKC,0.44,0.00,VWS V14.01,2013-04-11 02:19:00,
2013-04-10 21:24:00,36.5,35.2,29.90,NE,38,25.0,27.0,95,0.00,,SKC,0.44,0.00,VWS V14.01,2013-04-11 02:24:00,
2013-04-10 21:29:00,36.5,35.2,29.88,NNE,26,20.0,30.0,95,0.01,,SKC,0.45,0.00,VWS V14.01,2013-04-11 02:29:00,
2013-04-10 21:34:00,36.4,35.1,29.88,NE,36,19.0,31.0,95,0.01,,SKC,0.45,0.00,VWS V14.01,2013-04-11 02:34:00,
2013-04-10 21:39:00,36.5,35.2,29.87,NNE,33,19.0,31.0,95,0.01,,SKC,0.45,0.00,VWS V14.01,2013-04-11 02:39:00,
2013-04-10 21:44:00,36.6,35.3,29.86,North,5,19.0,24.0,95,0.01,,SKC,0.45,0.00,VWS V14.01,2013-04-11 02:44:00,
2013-04-10 21:49:00,36.7,35.4,29.87,NE,39,9.0,31.0,95,0.01,,SKC,0.45,0.00,VWS V14.01,2013-04-11 02:49:00,
2013-04-10 21:54:00,36.8,35.5,29.88,NE,38,11.0,19.0,95,0.02,,SKC,0.46,0.00,VWS V14.01,2013-04-11 02:54:00,
2013-04-10 21:59:00,37.0,35.7,29.88,NNE,28,14.0,22.0,95,0.03,,SKC,0.47,0.00,VWS V14.01,2013-04-11 02:59:00,
2013-04-10 22:04:00,37.1,36.1,29.89,ENE,59,12.0,19.0,96,0.04,,SKC,0.48,0.00,VWS V14.01,2013-04-11 03:04:00,
2013-04-10 22:09:00,37.3,36.3,29.90,NE,53,10.0,19.0,96,0.04,,SKC,0.48,0.00,VWS V14.01,2013-04-11 03:09:00,
2013-04-10 22:14:00,37.5,36.5,29.89,NE,46,10.0,15.0,96,0.04,,SKC,0.48,0.00,VWS V14.01,2013-04-11 03:14:00,
2013-04-10 22:19:00,37.7,36.7,29.89,NNE,30,14.0,18.0,96,0.05,,SKC,0.49,0.00,VWS V14.01,2013-04-11 03:19:00,
2013-04-10 22:24:00,37.7,36.4,29.88,ENE,63,13.0,23.0,95,0.06,,SKC,0.50,0.00,VWS V14.01,2013-04-11 03:24:00,
2013-04-10 22:29:00,37.8,36.5,29.88,ENE,64,12.0,23.0,95,0.07,,SKC,0.51,0.00,VWS V14.01,2013-04-11 03:29:00,
2013-04-10 22:34:00,37.8,36.5,29.88,NNE,28,7.0,21.0,95,0.07,,SKC,0.52,0.00,VWS V14.01,2013-04-11 03:34:00,
2013-04-10 22:39:00,37.8,36.5,29.87,NE,41,9.0,21.0,95,0.08,,SKC,0.53,0.00,VWS V14.01,2013-04-11 03:39:00,
2013-04-10 22:44:00,37.8,36.5,29.87,NE,44,8.0,16.0,95,0.08,,SKC,0.53,0.00,VWS V14.01,2013-04-11 03:44:00,
2013-04-10 22:49:00,37.9,36.6,29.88,ENE,57,11.0,19.0,95,0.09,,SKC,0.54,0.00,VWS V14.01,2013-04-11 03:49:00,
2013-04-10 22:54:00,37.9,36.6,29.88,NE,36,9.0,19.0,95,0.09,,SKC,0.55,0.00,VWS V14.01,2013-04-11 03:54:00,
2013-04-10 22:59:00,37.8,36.5,29.88,NE,51,11.0,19.0,95,0.11,,SKC,0.57,0.00,VWS V14.01,2013-04-11 03:59:00,
2013-04-10 23:00:00,37.8,36.5,29.88,NE,50,4.0,19.0,95,0.11,,SKC,0.57,0.00,VWS V14.01,2013-04-11 04:00:00,
2013-04-10 23:05:00,37.7,36.4,29.88,ENE,63,7.0,19.0,95,0.11,,SKC,0.58,0.00,VWS V14.01,2013-04-11 04:05:00,
2013-04-10 23:10:00,37.7,36.4,29.87,ENE,58,20.0,20.0,95,0.11,,SKC,0.59,0.00,VWS V14.01,2013-04-11 04:10:00,
2013-04-10 23:15:00,37.7,36.4,29.87,NE,49,14.0,21.0,95,0.12,,SKC,0.60,0.00,VWS V14.01,2013-04-11 04:15:00,
2013-04-10 23:20:00,37.7,36.4,29.87,ENE,68,12.0,12.0,95,0.11,,SKC,0.60,0.00,VWS V14.01,2013-04-11 04:20:00,
2013-04-10 23:25:00,37.6,36.3,29.87,ENE,65,15.0,22.0,95,0.12,,SKC,0.61,0.00,VWS V14.01,2013-04-11 04:25:00,
2013-04-10 23:30:00,37.6,36.3,29.87,NE,43,17.0,18.0,95,0.11,,SKC,0.62,0.00,VWS V14.01,2013-04-11 04:30:00,
2013-04-10 23:35:00,37.5,36.2,29.86,NE,36,16.0,22.0,95,0.12,,SKC,0.63,0.00,VWS V14.01,2013-04-11 04:35:00,
2013-04-10 23:40:00,37.5,36.2,29.86,NNE,26,15.0,17.0,95,0.11,,SKC,0.64,0.00,VWS V14.01,2013-04-11 04:40:00,
2013-04-10 23:45:00,37.4,36.1,29.86,ENE,67,13.0,20.0,95,0.13,,SKC,0.66,0.00,VWS V14.01,2013-04-11 04:45:00,
2013-04-10 23:50:00,37.4,36.1,29.87,ENE,64,8.0,20.0,95,0.13,,SKC,0.67,0.00,VWS V14.01,2013-04-11 04:50:00,
2013-04-10 23:55:00,37.4,36.1,29.87,ENE,75,10.0,22.0,95,0.14,,SKC,0.68,0.00,VWS V14.01,2013-04-11 04:55:00,